Time;durP1;ratioP1;P1;durP2;ratioP2;P2;SDS_P1;SDS_P2;PMS_P1;PMS_P2;Temp;Humidity;BMP_temperature;BMP_pressure;BME280_temperature;BME280_humidity;BME280_pressure;Samples;Min_cycle;Max_cycle;Signal;HPM_P1;HPM_P2
2022/05/16 00:00:39;;;;;;;3.38;1.50;;;14.30;78.20;;;;;;5035888;28;20025;-72
2022/05/16 00:03:07;;;;;;;4.25;1.58;;;14.30;78.50;;;;;;5002111;28;20079;-72
2022/05/16 00:05:33;;;;;;;4.68;1.80;;;14.30;79.50;;;;;;5039276;28;20041;-73
2022/05/16 00:07:59;;;;;;;3.63;1.50;;;14.30;80.20;;;;;;5019852;28;20033;-72
2022/05/16 00:10:24;;;;;;;4.70;1.60;;;14.30;80.40;;;;;;5033578;28;20032;-72
2022/05/16 00:12:51;;;;;;;4.97;1.80;;;14.20;81.00;;;;;;5016451;28;20041;-71
2022/05/16 00:15:20;;;;;;;3.90;1.50;;;14.20;81.90;;;;;;5038077;28;20036;-71
2022/05/16 00:17:46;;;;;;;5.18;1.42;;;14.20;82.60;;;;;;5014692;28;20036;-73
2022/05/16 00:20:12;;;;;;;2.92;1.40;;;14.10;83.20;;;;;;5018635;28;20029;-69
2022/05/16 00:22:38;;;;;;;2.78;1.52;;;14.20;83.80;;;;;;5034272;28;20085;-69
2022/05/16 00:25:07;;;;;;;4.50;1.73;;;14.10;84.40;;;;;;5019314;28;20033;-68
2022/05/16 00:27:34;;;;;;;5.35;1.52;;;14.10;85.00;;;;;;5033207;28;20029;-69
2022/05/16 00:30:06;;;;;;;5.60;1.95;;;14.10;85.90;;;;;;5013805;28;20045;-69
2022/05/16 00:32:32;;;;;;;4.43;1.50;;;14.00;86.60;;;;;;5034517;28;20079;-69
2022/05/16 00:34:57;;;;;;;4.00;1.70;;;14.00;87.80;;;;;;5020406;28;20029;-69
2022/05/16 00:37:23;;;;;;;4.40;2.05;;;14.00;87.80;;;;;;5037718;28;20037;-70
2022/05/16 00:39:48;;;;;;;3.92;1.80;;;14.00;89.10;;;;;;4999832;28;20746;-69
2022/05/16 00:42:14;;;;;;;3.58;1.50;;;14.00;89.20;;;;;;5033279;28;20029;-69
2022/05/16 00:44:40;;;;;;;5.38;1.98;;;14.00;89.80;;;;;;5034886;28;20125;-69
2022/05/16 00:47:06;;;;;;;6.30;2.00;;;14.00;90.40;;;;;;5037734;28;20030;-69
2022/05/16 00:49:36;;;;;;;3.42;1.75;;;14.00;90.60;;;;;;5016765;28;20040;-69
2022/05/16 00:52:04;;;;;;;4.13;1.75;;;13.90;90.90;;;;;;5032770;28;20037;-70
2022/05/16 00:54:35;;;;;;;4.72;1.90;;;14.00;91.20;;;;;;5032071;28;20379;-69
2022/05/16 00:57:08;;;;;;;5.20;2.05;;;13.90;91.60;;;;;;5033313;28;20033;-70
2022/05/16 00:59:45;;;;;;;5.95;1.83;;;13.90;92.30;;;;;;5014536;28;20033;-69
2022/05/16 01:04:56;;;;;;;4.25;1.63;;;13.90;92.70;;;;;;5035976;28;20111;-69
2022/05/16 01:07:32;;;;;;;4.22;1.70;;;13.80;92.90;;;;;;5035982;28;20029;-69
2022/05/16 01:09:58;;;;;;;3.97;1.75;;;13.80;93.20;;;;;;5036203;28;20025;-69
2022/05/16 01:12:35;;;;;;;4.93;1.85;;;13.80;93.60;;;;;;5015732;28;20547;-69
2022/05/16 01:15:10;;;;;;;5.00;1.70;;;13.80;93.90;;;;;;5014297;28;20088;-69
2022/05/16 01:17:37;;;;;;;3.80;1.90;;;13.80;94.40;;;;;;5037842;28;20032;-69
2022/05/16 01:20:07;;;;;;;5.57;1.95;;;13.80;94.80;;;;;;5034408;28;20587;-69
2022/05/16 01:22:43;;;;;;;6.78;2.10;;;13.70;95.20;;;;;;5015521;28;20417;-70
2022/05/16 01:25:13;;;;;;;3.83;1.90;;;13.70;95.50;;;;;;5035226;28;20033;-70
2022/05/16 01:27:49;;;;;;;4.03;1.73;;;13.70;95.80;;;;;;5014594;28;20037;-70
2022/05/16 01:30:19;;;;;;;3.85;1.80;;;13.70;96.20;;;;;;5032227;28;20044;-70
2022/05/16 01:32:45;;;;;;;5.75;1.88;;;13.70;96.60;;;;;;5011104;28;20087;-69
2022/05/16 01:35:12;;;;;;;5.80;2.30;;;13.60;96.80;;;;;;5033755;28;20378;-72
2022/05/16 01:40:23;;;;;;;3.75;1.70;;;13.60;97.30;;;;;;5033803;28;20036;-72
2022/05/16 01:42:48;;;;;;;5.10;1.63;;;13.60;97.50;;;;;;5034179;28;20054;-72
2022/05/16 01:45:15;;;;;;;4.80;2.03;;;13.60;97.80;;;;;;5033985;28;20033;-71
2022/05/16 01:47:40;;;;;;;4.07;2.15;;;13.50;97.90;;;;;;5019081;28;20400;-72
2022/05/16 01:50:06;;;;;;;5.13;1.80;;;13.50;98.10;;;;;;5030029;28;20033;-71
2022/05/16 01:52:32;;;;;;;8.45;2.30;;;13.50;98.40;;;;;;5030040;28;20024;-72
2022/05/16 01:54:59;;;;;;;7.32;2.22;;;13.50;98.60;;;;;;5017111;28;20107;-75
2022/05/16 01:57:24;;;;;;;7.40;2.33;;;13.40;98.70;;;;;;5017214;28;20107;-72
2022/05/16 01:59:50;;;;;;;6.38;2.45;;;13.40;98.90;;;;;;5019339;28;20481;-72
2022/05/16 02:02:15;;;;;;;7.20;2.50;;;13.30;98.80;;;;;;5035041;28;20083;-73
2022/05/16 02:04:42;;;;;;;5.38;1.90;;;13.30;99.00;;;;;;5035864;28;20045;-73
2022/05/16 02:07:07;;;;;;;5.53;2.17;;;13.30;99.30;;;;;;5030466;28;20060;-70
2022/05/16 02:09:33;;;;;;;4.32;2.05;;;13.30;99.50;;;;;;5033431;28;20061;-70
2022/05/16 02:11:59;;;;;;;5.35;2.63;;;13.20;99.70;;;;;;5032973;28;20029;-69
2022/05/16 02:14:25;;;;;;;4.75;1.88;;;13.20;99.90;;;;;;4999294;28;20029;-69
2022/05/16 02:16:51;;;;;;;5.05;2.15;;;13.20;99.90;;;;;;5013127;28;20092;-70
2022/05/16 02:19:17;;;;;;;5.93;2.28;;;13.20;99.80;;;;;;5036553;28;20026;-69
2022/05/16 02:24:38;;;;;;;5.50;2.10;;;13.20;99.90;;;;;;5032726;28;20029;-67
2022/05/16 02:27:06;;;;;;;6.22;2.38;;;13.20;99.90;;;;;;5031975;28;20060;-70
2022/05/16 02:29:32;;;;;;;8.23;2.17;;;13.20;99.90;;;;;;5015386;28;20033;-70
2022/05/16 02:31:57;;;;;;;4.93;1.90;;;13.20;99.90;;;;;;5010114;28;20393;-70
2022/05/16 02:34:23;;;;;;;4.00;1.92;;;13.10;99.90;;;;;;5036424;28;20505;-69
2022/05/16 02:36:50;;;;;;;7.40;2.33;;;13.10;99.90;;;;;;5031388;28;20029;-69
2022/05/16 02:39:17;;;;;;;8.73;2.33;;;13.10;99.90;;;;;;5027865;28;20036;-69
2022/05/16 02:41:43;;;;;;;4.70;2.42;;;13.10;99.90;;;;;;5034696;28;20477;-69
2022/05/16 02:44:09;;;;;;;5.65;2.15;;;13.10;99.90;;;;;;5015288;28;20107;-70
2022/05/16 02:46:34;;;;;;;4.80;2.22;;;13.10;99.90;;;;;;5002142;28;20082;-68
2022/05/16 02:49:00;;;;;;;5.93;1.90;;;13.20;99.90;;;;;;5038730;28;20025;-69
2022/05/16 02:51:26;;;;;;;5.25;2.00;;;13.10;99.90;;;;;;5016536;28;20048;-70
2022/05/16 02:53:52;;;;;;;6.45;2.47;;;13.10;99.90;;;;;;5036745;28;20021;-67
2022/05/16 02:56:17;;;;;;;5.03;2.15;;;13.10;99.90;;;;;;5019047;28;20040;-69
2022/05/16 02:58:43;;;;;;;5.05;2.08;;;13.00;99.90;;;;;;5037825;28;20045;-69
2022/05/16 03:01:10;;;;;;;4.97;2.28;;;13.00;99.90;;;;;;5033615;28;20504;-68
2022/05/16 03:03:36;;;;;;;5.00;1.80;;;13.00;99.90;;;;;;5032542;28;20369;-70
2022/05/16 03:06:03;;;;;;;4.93;2.42;;;13.00;99.90;;;;;;5036331;28;20501;-70
2022/05/16 03:08:29;;;;;;;8.02;2.88;;;13.00;99.90;;;;;;5036975;28;20029;-70
2022/05/16 03:10:54;;;;;;;4.97;2.47;;;13.00;99.90;;;;;;5018130;28;20429;-70
2022/05/16 03:13:20;;;;;;;6.50;2.67;;;13.00;99.90;;;;;;5034334;28;20048;-69
2022/05/16 03:15:47;;;;;;;6.05;2.10;;;12.90;99.90;;;;;;5020384;28;20040;-69
2022/05/16 03:18:13;;;;;;;5.43;2.05;;;13.00;99.90;;;;;;5036604;28;20033;-70
2022/05/16 03:20:38;;;;;;;3.67;2.10;;;12.90;99.90;;;;;;5035397;28;20040;-72
2022/05/16 03:23:04;;;;;;;6.82;2.45;;;12.90;99.90;;;;;;5017196;28;20052;-72
2022/05/16 03:25:30;;;;;;;6.30;2.33;;;12.90;99.90;;;;;;5035028;28;20040;-72
2022/05/16 03:27:55;;;;;;;5.25;2.10;;;13.00;99.90;;;;;;5018954;28;20030;-73
2022/05/16 03:30:21;;;;;;;5.00;2.10;;;13.00;99.90;;;;;;5031608;28;20500;-73
2022/05/16 03:32:48;;;;;;;4.88;2.28;;;12.90;99.90;;;;;;5017631;28;20620;-72
2022/05/16 03:35:14;;;;;;;4.90;2.22;;;13.00;99.90;;;;;;5037940;28;20101;-75
2022/05/16 03:37:40;;;;;;;4.88;2.28;;;13.00;99.90;;;;;;5030138;28;20147;-72
2022/05/16 03:42:50;;;;;;;4.30;2.00;;;13.00;99.90;;;;;;5035970;28;20052;-71
2022/05/16 03:45:16;;;;;;;8.10;2.65;;;13.00;99.90;;;;;;5020189;28;20446;-72
2022/05/16 03:47:42;;;;;;;6.70;2.25;;;13.00;99.90;;;;;;5032644;28;20025;-72
2022/05/16 03:50:08;;;;;;;6.85;2.42;;;13.00;99.90;;;;;;5017176;28;20029;-72
2022/05/16 03:52:34;;;;;;;4.65;2.10;;;13.00;99.90;;;;;;5040375;28;20109;-74
2022/05/16 03:55:00;;;;;;;6.25;2.88;;;13.00;99.90;;;;;;5016849;28;20033;-75
2022/05/16 03:57:26;;;;;;;6.07;2.45;;;12.90;99.90;;;;;;5035308;28;20170;-72
2022/05/16 03:59:51;;;;;;;8.70;2.60;;;13.00;99.90;;;;;;5035221;28;20032;-73
2022/05/16 04:02:17;;;;;;;5.18;2.13;;;12.90;99.90;;;;;;5035276;28;20103;-73
2022/05/16 04:04:43;;;;;;;6.32;2.58;;;12.90;99.90;;;;;;5037220;28;20062;-73
2022/05/16 04:07:09;;;;;;;8.15;2.38;;;12.90;99.90;;;;;;5018012;28;20025;-73
2022/05/16 04:09:35;;;;;;;4.68;1.80;;;12.90;99.90;;;;;;5016602;28;20040;-75
2022/05/16 04:12:01;;;;;;;7.60;2.50;;;12.90;99.90;;;;;;5033287;28;20029;-73
2022/05/16 04:14:27;;;;;;;6.38;2.20;;;12.90;99.90;;;;;;5037921;28;20033;-75
2022/05/16 04:16:52;;;;;;;6.88;2.50;;;12.90;99.90;;;;;;5033273;28;20033;-73
2022/05/16 04:19:18;;;;;;;8.50;2.38;;;12.90;99.90;;;;;;5033954;28;20029;-72
2022/05/16 04:21:43;;;;;;;6.07;2.30;;;12.80;99.90;;;;;;5036313;28;20040;-74
2022/05/16 04:24:10;;;;;;;4.45;2.50;;;12.80;99.90;;;;;;5017028;28;20445;-73
2022/05/16 04:26:36;;;;;;;6.15;2.75;;;12.90;99.90;;;;;;5031199;28;22130;-72
2022/05/16 04:29:03;;;;;;;7.55;2.58;;;12.90;99.90;;;;;;5035374;28;20028;-71
2022/05/16 04:31:29;;;;;;;7.13;2.60;;;12.90;99.90;;;;;;5027215;28;20026;-73
2022/05/16 04:33:54;;;;;;;6.63;2.40;;;12.90;99.90;;;;;;5013440;28;20473;-73
2022/05/16 04:36:20;;;;;;;6.90;2.65;;;13.00;99.90;;;;;;5030310;28;20620;-72
2022/05/16 04:38:46;;;;;;;6.05;2.80;;;13.00;99.90;;;;;;5034388;28;20042;-73
2022/05/16 04:43:56;;;;;;;6.55;2.38;;;13.00;99.90;;;;;;5031478;28;20026;-73
2022/05/16 04:46:22;;;;;;;4.88;2.45;;;13.10;99.90;;;;;;5030363;28;20083;-71
2022/05/16 04:48:47;;;;;;;10.52;2.78;;;13.20;99.90;;;;;;5015549;28;20029;-71
2022/05/16 04:51:13;;;;;;;8.75;2.30;;;13.20;99.90;;;;;;5018640;28;20412;-73
2022/05/16 04:53:39;;;;;;;8.40;2.47;;;13.30;99.90;;;;;;5017315;28;20191;-71
2022/05/16 04:56:05;;;;;;;7.57;2.70;;;13.30;99.90;;;;;;4997377;28;20041;-73
2022/05/16 04:58:33;;;;;;;10.20;2.65;;;13.30;99.90;;;;;;5013224;28;20056;-71
2022/05/16 05:01:00;;;;;;;9.10;2.90;;;13.40;99.90;;;;;;5029538;28;20036;-72
2022/05/16 05:03:32;;;;;;;5.32;2.10;;;13.40;99.90;;;;;;5027160;28;20029;-73
2022/05/16 05:05:57;;;;;;;5.55;2.72;;;13.50;99.90;;;;;;5012866;28;20029;-74
2022/05/16 05:08:23;;;;;;;7.85;2.70;;;13.50;99.90;;;;;;5015493;28;20036;-74
2022/05/16 05:16:20;;;;;;;4.68;2.08;;;13.60;99.90;;;;;;5016154;28;20025;-74
2022/05/16 05:18:46;;;;;;;6.97;2.40;;;13.90;99.90;;;;;;5031064;28;21405;-73
2022/05/16 05:21:12;;;;;;;6.28;2.80;;;14.20;99.90;;;;;;5008699;28;20128;-74
2022/05/16 05:23:39;;;;;;;7.20;2.22;;;14.40;99.90;;;;;;5009226;28;20033;-71
2022/05/16 05:26:06;;;;;;;6.15;2.53;;;14.40;99.90;;;;;;5012615;28;20623;-70
2022/05/16 05:28:33;;;;;;;5.47;2.65;;;14.40;99.90;;;;;;5027438;28;20517;-71
2022/05/16 05:30:59;;;;;;;5.00;2.28;;;14.40;99.90;;;;;;5028220;28;20029;-72
2022/05/16 05:33:25;;;;;;;4.90;1.95;;;14.30;99.90;;;;;;5031141;28;20021;-70
2022/05/16 05:35:51;;;;;;;5.97;2.70;;;14.30;99.90;;;;;;5010857;28;20033;-71
2022/05/16 05:38:18;;;;;;;6.60;2.17;;;14.20;99.90;;;;;;5012183;28;20037;-73
2022/05/16 05:40:44;;;;;;;6.30;2.40;;;14.20;99.90;;;;;;4990789;28;20040;-72
2022/05/16 05:43:10;;;;;;;7.40;2.38;;;14.20;99.90;;;;;;5013730;28;20463;-73
2022/05/16 05:45:36;;;;;;;5.28;2.65;;;14.30;99.90;;;;;;5019023;28;20116;-73
2022/05/16 05:48:04;;;;;;;8.40;2.58;;;14.30;99.90;;;;;;5019028;28;20070;-72
2022/05/16 05:50:30;;;;;;;5.32;2.20;;;14.30;99.90;;;;;;5016967;28;20109;-73
2022/05/16 05:52:57;;;;;;;7.05;2.58;;;14.40;99.90;;;;;;5033802;28;20480;-73
2022/05/16 05:55:22;;;;;;;7.43;2.67;;;14.40;99.90;;;;;;5031522;28;20060;-72
2022/05/16 05:57:48;;;;;;;5.13;2.17;;;14.50;99.90;;;;;;5014967;28;20061;-71
2022/05/16 06:00:14;;;;;;;7.47;2.67;;;14.50;99.90;;;;;;5035583;28;20037;-75
2022/05/16 06:02:41;;;;;;;6.55;2.90;;;14.60;99.90;;;;;;5018882;28;20043;-74
2022/05/16 06:05:13;;;;;;;10.27;2.58;;;14.70;99.90;;;;;;5000100;28;20033;-74
2022/05/16 06:07:39;;;;;;;8.05;2.50;;;14.70;99.90;;;;;;5032944;28;20243;-74
2022/05/16 06:10:06;;;;;;;6.68;2.38;;;14.80;99.90;;;;;;4995114;28;20127;-75
2022/05/16 06:12:32;;;;;;;7.80;2.55;;;14.80;99.90;;;;;;5029071;28;20025;-74
2022/05/16 06:14:59;;;;;;;7.25;2.03;;;14.90;99.90;;;;;;5015395;28;20056;-72
2022/05/16 06:17:25;;;;;;;5.95;2.40;;;15.00;99.90;;;;;;5027310;28;20041;-71
2022/05/16 06:19:51;;;;;;;7.10;2.35;;;15.00;99.90;;;;;;5028966;28;20066;-70
2022/05/16 06:22:16;;;;;;;5.80;2.45;;;15.00;99.90;;;;;;5029305;28;20033;-70
2022/05/16 06:27:29;;;;;;;10.00;3.28;;;15.20;99.90;;;;;;5012258;28;20017;-73
2022/05/16 06:29:56;;;;;;;6.38;2.13;;;15.30;99.80;;;;;;5031155;28;20175;-71
2022/05/16 06:32:22;;;;;;;5.47;2.20;;;15.30;99.60;;;;;;5028106;28;20608;-72
2022/05/16 06:34:48;;;;;;;8.57;2.50;;;15.40;99.60;;;;;;5010238;28;20033;-68
2022/05/16 06:37:14;;;;;;;10.48;2.67;;;15.40;99.50;;;;;;4996284;28;20397;-71
2022/05/16 06:39:42;;;;;;;7.18;2.25;;;15.50;99.30;;;;;;5029035;28;20605;-71
2022/05/16 06:42:08;;;;;;;6.35;2.55;;;15.60;99.30;;;;;;5010209;28;20032;-69
2022/05/16 06:44:34;;;;;;;4.72;2.17;;;15.60;99.30;;;;;;5031502;28;20044;-70
2022/05/16 06:47:00;;;;;;;10.60;2.67;;;15.70;99.40;;;;;;5014656;28;20030;-71
2022/05/16 06:49:25;;;;;;;7.97;2.50;;;15.80;99.10;;;;;;5015573;28;20171;-71
2022/05/16 06:51:51;;;;;;;8.40;2.60;;;15.80;98.60;;;;;;5029894;28;20056;-71
2022/05/16 06:54:17;;;;;;;6.78;2.42;;;15.80;98.50;;;;;;5013251;28;20074;-72
2022/05/16 06:56:45;;;;;;;6.78;2.47;;;15.80;98.40;;;;;;5012185;28;20037;-71
2022/05/16 06:59:11;;;;;;;6.13;2.53;;;15.90;98.40;;;;;;5024983;28;20029;-70
2022/05/16 07:01:38;;;;;;;6.18;2.50;;;15.90;98.60;;;;;;5010074;28;20029;-73
2022/05/16 07:04:04;;;;;;;6.82;2.72;;;16.00;98.20;;;;;;5029829;28;20036;-74
2022/05/16 07:06:32;;;;;;;4.22;2.42;;;16.10;98.10;;;;;;5034125;28;20037;-74
2022/05/16 07:08:57;;;;;;;5.20;2.03;;;16.20;98.00;;;;;;5036947;28;20033;-74
2022/05/16 07:11:24;;;;;;;6.10;2.20;;;16.20;97.80;;;;;;5030853;28;20032;-73
2022/05/16 07:13:49;;;;;;;5.68;2.38;;;16.30;97.80;;;;;;5012365;28;20155;-74
2022/05/16 07:16:15;;;;;;;5.70;2.30;;;16.40;97.90;;;;;;5031886;28;20107;-72
2022/05/16 07:18:41;;;;;;;6.65;2.58;;;16.50;97.20;;;;;;5035166;28;20021;-73
2022/05/16 07:21:07;;;;;;;5.80;2.75;;;16.60;97.10;;;;;;5028725;28;20114;-73
2022/05/16 07:23:33;;;;;;;8.52;2.40;;;16.70;97.10;;;;;;5033634;28;20159;-74
2022/05/16 07:28:44;;;;;;;5.20;2.08;;;16.90;97.00;;;;;;5036221;28;20040;-73
2022/05/16 07:31:10;;;;;;;6.35;2.47;;;16.90;96.50;;;;;;5034359;28;20086;-74
2022/05/16 07:33:36;;;;;;;5.60;2.03;;;16.90;96.50;;;;;;5020599;28;20282;-73
2022/05/16 07:36:03;;;;;;;4.70;2.25;;;17.00;96.40;;;;;;5021658;28;20025;-71
2022/05/16 07:38:29;;;;;;;6.45;2.63;;;17.10;96.40;;;;;;5039623;28;20063;-71
2022/05/16 07:40:55;;;;;;;5.82;2.58;;;17.10;96.40;;;;;;5014478;28;20116;-71
2022/05/16 07:43:21;;;;;;;8.60;2.42;;;17.20;96.40;;;;;;5036755;28;20034;-73
2022/05/16 07:45:47;;;;;;;6.10;2.30;;;17.20;96.00;;;;;;5000897;28;20044;-75
2022/05/16 07:48:14;;;;;;;5.18;2.00;;;17.10;96.00;;;;;;5032433;28;21075;-73
2022/05/16 07:50:40;;;;;;;4.45;2.38;;;17.10;96.00;;;;;;5016955;28;20032;-73
2022/05/16 07:53:12;;;;;;;3.83;2.15;;;17.10;96.00;;;;;;5035887;28;20608;-74
2022/05/16 07:55:40;;;;;;;4.68;2.47;;;17.10;96.20;;;;;;5017191;28;20036;-72
2022/05/16 07:58:06;;;;;;;6.10;2.47;;;17.10;96.30;;;;;;5037189;28;20048;-74
2022/05/16 08:00:32;;;;;;;5.28;2.33;;;17.20;96.20;;;;;;5037384;28;20477;-73
2022/05/16 08:02:58;;;;;;;7.28;2.47;;;17.20;96.10;;;;;;5017674;28;20029;-73
2022/05/16 08:05:23;;;;;;;8.70;2.17;;;17.40;96.10;;;;;;5035886;28;20087;-73
2022/05/16 08:10:36;;;;;;;6.57;2.60;;;17.60;95.40;;;;;;5036616;28;20037;-71
2022/05/16 08:13:06;;;;;;;5.35;2.38;;;17.70;95.30;;;;;;5018344;28;20078;-73
2022/05/16 08:15:33;;;;;;;4.95;2.00;;;17.60;95.40;;;;;;5038833;28;20025;-73
2022/05/16 08:17:59;;;;;;;5.60;2.47;;;17.70;95.50;;;;;;5035478;28;20025;-73
2022/05/16 08:20:26;;;;;;;8.40;2.50;;;17.80;95.60;;;;;;5021589;28;20037;-71
2022/05/16 08:22:52;;;;;;;5.43;2.25;;;17.80;95.10;;;;;;5016860;28;20033;-72
2022/05/16 08:25:18;;;;;;;8.63;2.28;;;17.80;95.00;;;;;;5037931;28;20031;-76
2022/05/16 08:27:44;;;;;;;8.00;2.45;;;17.80;95.00;;;;;;5018605;28;20025;-70
2022/05/16 08:30:12;;;;;;;6.53;2.45;;;17.90;95.10;;;;;;5039019;28;20489;-71
2022/05/16 08:32:38;;;;;;;6.00;2.25;;;17.90;94.40;;;;;;5038870;28;20052;-70
2022/05/16 08:35:07;;;;;;;3.95;2.00;;;18.00;94.30;;;;;;5022796;28;20490;-74
2022/05/16 08:40:20;;;;;;;4.55;2.20;;;18.20;94.00;;;;;;5037543;28;20032;-74
2022/05/16 08:42:56;;;;;;;5.63;2.03;;;18.30;93.60;;;;;;5020085;28;20132;-74
2022/05/16 08:45:31;;;;;;;5.80;2.33;;;18.30;93.40;;;;;;5035200;28;20021;-72
2022/05/16 08:48:30;;;;;;;6.18;1.98;;;18.40;93.60;;;;;;5036824;28;20029;-75
2022/05/16 08:51:12;;;;;;;6.65;2.22;;;18.50;93.30;;;;;;5019046;28;20512;-71
2022/05/16 08:53:46;;;;;;;4.38;2.03;;;18.70;93.10;;;;;;5019453;28;20051;-72
2022/05/16 08:56:19;;;;;;;6.18;2.17;;;18.80;93.10;;;;;;5034881;28;20111;-74
2022/05/16 08:58:51;;;;;;;5.32;1.95;;;18.90;93.00;;;;;;5038812;28;20064;-71
2022/05/16 09:01:21;;;;;;;8.82;2.25;;;19.00;92.40;;;;;;5018042;28;20075;-72
2022/05/16 09:03:55;;;;;;;5.13;2.20;;;19.10;92.40;;;;;;5015363;28;20029;-72
2022/05/16 09:06:27;;;;;;;9.23;2.50;;;19.10;92.20;;;;;;5016411;28;20075;-72
2022/05/16 09:09:14;;;;;;;6.68;2.00;;;19.20;92.00;;;;;;5035582;28;20033;-72
2022/05/16 09:11:56;;;;;;;7.28;1.92;;;19.30;91.00;;;;;;5018947;28;20031;-75
2022/05/16 09:14:51;;;;;;;6.03;1.77;;;19.30;90.70;;;;;;5015936;28;20382;-74
2022/05/16 09:17:48;;;;;;;3.67;1.85;;;19.30;90.70;;;;;;5033779;28;20104;-74
2022/05/16 09:20:32;;;;;;;4.30;2.03;;;19.40;90.70;;;;;;5037034;28;20512;-74
2022/05/16 09:23:05;;;;;;;4.82;1.90;;;19.60;90.90;;;;;;5037606;28;20489;-75
2022/05/16 09:26:10;;;;;;;3.53;1.70;;;19.60;90.10;;;;;;5008491;28;20465;-73
2022/05/16 09:28:48;;;;;;;4.53;1.70;;;19.80;90.20;;;;;;4956943;28;20074;-72
2022/05/16 09:31:18;;;;;;;5.68;2.00;;;19.90;89.60;;;;;;5035143;28;20029;-72
2022/05/16 09:33:50;;;;;;;3.97;1.65;;;19.90;88.60;;;;;;5019548;28;20037;-73
2022/05/16 09:36:21;;;;;;;4.55;1.75;;;19.90;88.30;;;;;;5029057;28;20374;-72
2022/05/16 09:38:47;;;;;;;6.35;2.08;;;19.90;88.70;;;;;;5029622;28;20150;-72
2022/05/16 09:41:21;;;;;;;3.90;1.63;;;20.00;86.70;;;;;;5012418;28;20505;-73
2022/05/16 09:43:52;;;;;;;5.40;2.08;;;20.00;86.70;;;;;;5015163;28;20044;-72
2022/05/16 09:46:23;;;;;;;6.30;1.88;;;20.10;85.70;;;;;;5034715;28;20025;-73
2022/05/16 09:49:15;;;;;;;;;;;20.30;86.00;;;;;;5032882;28;20137;-72
2022/05/16 09:51:51;;;;;;;5.85;1.85;;;20.30;84.80;;;;;;5012092;28;19917;-73
2022/05/16 09:54:24;;;;;;;5.28;2.00;;;20.40;84.10;;;;;;5035176;28;20099;-72
2022/05/16 09:57:06;;;;;;;5.30;1.88;;;20.40;83.60;;;;;;5014683;28;20024;-71
2022/05/16 09:59:45;;;;;;;3.15;1.65;;;20.40;83.30;;;;;;5031397;28;20084;-73
2022/05/16 10:02:28;;;;;;;7.60;1.95;;;20.60;83.00;;;;;;5031245;28;20029;-72
2022/05/16 10:05:20;;;;;;;4.22;2.13;;;20.60;81.90;;;;;;5035761;28;20413;-73
2022/05/16 10:07:49;;;;;;;3.90;1.83;;;20.60;81.40;;;;;;5034888;28;20025;-70
2022/05/16 10:10:19;;;;;;;3.85;1.80;;;20.70;80.30;;;;;;5009965;28;20018;-70
2022/05/16 10:12:47;;;;;;;4.27;1.60;;;20.90;79.80;;;;;;5010628;28;21055;-69
2022/05/16 10:15:13;;;;;;;6.38;1.85;;;21.10;78.00;;;;;;5013149;28;20045;-70
2022/05/16 10:17:42;;;;;;;5.57;1.73;;;21.20;78.00;;;;;;5018477;28;20033;-73
2022/05/16 10:20:17;;;;;;;5.60;1.80;;;21.40;77.90;;;;;;5033550;28;20393;-74
2022/05/16 10:22:44;;;;;;;2.85;1.85;;;21.50;76.00;;;;;;5033855;28;20025;-73
2022/05/16 10:25:18;;;;;;;3.85;1.70;;;21.50;74.00;;;;;;5017540;28;20037;-76
2022/05/16 10:27:48;;;;;;;5.82;1.80;;;21.50;73.60;;;;;;5036654;28;20104;-73
2022/05/16 10:30:20;;;;;;;4.18;1.63;;;21.50;73.40;;;;;;5034555;28;20550;-73
2022/05/16 10:35:52;;;;;;;3.15;1.50;;;21.50;73.00;;;;;;5038277;28;20083;-74
2022/05/16 10:38:40;;;;;;;6.05;1.73;;;21.50;72.60;;;;;;5015913;28;20063;-75
2022/05/16 10:41:14;;;;;;;6.75;1.48;;;21.60;72.00;;;;;;5037232;28;20060;-75
2022/05/16 10:44:12;;;;;;;3.85;1.63;;;21.80;70.80;;;;;;5038129;28;20450;-73
2022/05/16 10:46:42;;;;;;;3.58;1.67;;;21.90;71.60;;;;;;5030908;28;20044;-73
2022/05/16 10:49:16;;;;;;;5.75;1.90;;;22.00;72.10;;;;;;5019130;28;20017;-74
2022/05/16 10:51:52;;;;;;;3.95;1.77;;;22.10;70.50;;;;;;5000909;28;20393;-75
2022/05/16 10:54:21;;;;;;;6.22;2.03;;;22.10;69.70;;;;;;5021438;28;20029;-76
2022/05/16 10:57:26;;;;;;;4.72;1.85;;;22.10;70.10;;;;;;5036702;28;20033;-75
2022/05/16 11:00:18;;;;;;;6.25;2.17;;;22.20;67.60;;;;;;5040536;28;20029;-76
2022/05/16 11:03:07;;;;;;;4.97;1.88;;;22.30;67.20;;;;;;5022717;28;20037;-76
2022/05/16 11:05:39;;;;;;;7.22;2.08;;;22.40;66.40;;;;;;4960329;28;20054;-77
2022/05/16 11:08:37;;;;;;;6.25;2.10;;;22.50;65.40;;;;;;4967763;28;20047;-77
2022/05/16 11:11:27;;;;;;;4.00;1.55;;;22.70;66.40;;;;;;4944859;28;20244;-75
2022/05/16 11:14:13;;;;;;;5.22;1.98;;;23.60;65.20;;;;;;4944778;28;20030;-75
2022/05/16 11:16:39;;;;;;;5.25;1.75;;;25.40;62.50;;;;;;4953768;28;20047;-77
2022/05/16 11:19:30;;;;;;;6.57;2.03;;;27.40;58.70;;;;;;4939117;28;20045;-77
2022/05/16 11:22:16;;;;;;;4.18;1.90;;;29.20;54.20;;;;;;4958924;28;20086;-77
2022/05/16 11:25:05;;;;;;;4.55;1.67;;;29.80;50.50;;;;;;4924127;28;20236;-76
2022/05/16 11:28:00;;;;;;;7.80;2.00;;;30.00;49.10;;;;;;4965083;28;20039;-77
2022/05/16 11:30:54;;;;;;;5.38;2.03;;;31.40;48.30;;;;;;4966519;28;20589;-74
2022/05/16 11:33:39;;;;;;;3.92;1.60;;;32.70;44.40;;;;;;4932690;28;20053;-75
2022/05/16 11:36:23;;;;;;;5.28;1.90;;;33.70;43.30;;;;;;4947987;28;20478;-76
2022/05/16 11:39:03;;;;;;;6.35;2.38;;;34.60;40.90;;;;;;4950013;28;20050;-75
2022/05/16 11:41:43;;;;;;;3.05;1.50;;;35.20;39.80;;;;;;4950919;28;20039;-76
2022/05/16 11:44:41;;;;;;;4.47;1.95;;;35.00;39.30;;;;;;5036168;28;20053;-76
2022/05/16 11:47:21;;;;;;;4.30;1.80;;;34.50;38.70;;;;;;5003046;28;20413;-76
2022/05/16 11:50:22;;;;;;;4.40;1.92;;;33.90;39.50;;;;;;5018450;28;20502;-77
2022/05/16 11:53:11;;;;;;;3.63;1.80;;;33.30;38.40;;;;;;5000521;28;20115;-77
2022/05/16 12:01:36;;;;;;;4.65;1.90;;;32.10;39.70;;;;;;5036725;28;20068;-76
2022/05/16 12:04:05;;;;;;;5.32;2.40;;;31.60;41.20;;;;;;5003363;28;20024;-76
2022/05/16 12:06:36;;;;;;;5.60;1.95;;;31.60;41.80;;;;;;5037491;28;20022;-75
2022/05/16 12:09:17;;;;;;;4.28;2.00;;;31.70;41.20;;;;;;5035159;28;20021;-76
2022/05/16 12:11:54;;;;;;;4.20;1.92;;;32.10;41.20;;;;;;5017657;28;20033;-76
2022/05/16 12:14:34;;;;;;;5.82;1.83;;;32.70;40.30;;;;;;5018043;28;20033;-76
2022/05/16 12:17:27;;;;;;;4.70;2.00;;;32.80;39.20;;;;;;5037823;28;20041;-76
2022/05/16 12:19:53;;;;;;;3.95;1.95;;;33.00;39.80;;;;;;5037548;28;20100;-76
2022/05/16 12:22:36;;;;;;;3.47;2.05;;;33.10;39.40;;;;;;5019472;28;20026;-76
2022/05/16 12:25:26;;;;;;;7.72;2.20;;;33.50;39.90;;;;;;5037260;28;20029;-76
2022/05/16 12:28:21;;;;;;;4.35;1.63;;;33.70;38.00;;;;;;5033816;28;20442;-76
2022/05/16 12:30:46;;;;;;;3.88;1.73;;;33.90;38.40;;;;;;5033698;28;20134;-76
2022/05/16 12:33:33;;;;;;;3.65;1.90;;;34.00;38.40;;;;;;5019687;28;20711;-76
2022/05/16 12:35:59;;;;;;;3.42;1.75;;;34.60;38.90;;;;;;5039808;28;20109;-77
2022/05/16 12:38:28;;;;;;;5.90;2.00;;;34.80;38.00;;;;;;5039161;28;20049;-76
2022/05/16 12:41:44;;;;;;;3.92;2.20;;;34.70;38.60;;;;;;5003876;28;20039;-76
2022/05/16 12:44:42;;;;;;;6.57;1.85;;;35.30;38.20;;;;;;5018002;28;20025;-75
2022/05/16 12:47:34;;;;;;;4.60;1.88;;;35.50;37.50;;;;;;4985005;28;20044;-76
2022/05/16 12:50:36;;;;;;;5.55;2.10;;;36.10;36.70;;;;;;5023005;28;20021;-76
2022/05/16 12:53:39;;;;;;;5.97;1.83;;;36.60;36.20;;;;;;5042099;28;20088;-77
2022/05/16 12:56:16;;;;;;;4.00;2.10;;;36.80;35.30;;;;;;5033674;28;20029;-76
2022/05/16 12:58:53;;;;;;;4.78;2.42;;;37.00;35.40;;;;;;5018446;28;20097;-76
2022/05/16 13:01:34;;;;;;;6.43;2.00;;;37.20;34.20;;;;;;5020353;28;20025;-76
2022/05/16 13:04:25;;;;;;;4.13;1.92;;;37.30;34.10;;;;;;5019593;28;20104;-76
2022/05/16 13:07:33;;;;;;;3.58;1.95;;;36.90;34.50;;;;;;5017627;28;20505;-75
2022/05/16 13:10:29;;;;;;;5.85;2.28;;;37.10;34.20;;;;;;5022265;28;20124;-76
2022/05/16 13:13:09;;;;;;;2.80;1.85;;;37.30;34.40;;;;;;5036760;28;20026;-75
2022/05/16 13:16:25;;;;;;;3.47;1.65;;;37.50;34.30;;;;;;5032185;28;20042;-76
2022/05/16 13:18:58;;;;;;;5.50;2.17;;;37.50;34.10;;;;;;4913118;29;20135;-75
2022/05/16 13:21:36;;;;;;;5.85;1.83;;;37.80;33.90;;;;;;4922488;29;20043;-77
2022/05/16 13:24:06;;;;;;;4.78;2.10;;;37.70;33.20;;;;;;4925464;29;20039;-75
2022/05/16 13:29:33;;;;;;;3.92;2.20;;;38.30;33.30;;;;;;4940986;28;20050;-77
2022/05/16 13:32:16;;;;;;;5.68;2.50;;;38.60;32.90;;;;;;4938939;29;20053;-76
2022/05/16 13:34:43;;;;;;;4.28;1.80;;;39.00;33.00;;;;;;4942891;28;20070;-77
2022/05/16 13:37:11;;;;;;;3.97;2.30;;;39.10;32.10;;;;;;4939285;28;20047;-77
2022/05/16 13:39:42;;;;;;;4.95;2.20;;;38.50;32.50;;;;;;4944779;28;20027;-77
2022/05/16 13:42:08;;;;;;;2.50;1.60;;;38.00;32.20;;;;;;4923454;28;20452;-77
2022/05/16 13:44:39;;;;;;;3.05;1.95;;;37.30;32.70;;;;;;4925744;29;20061;-77
2022/05/16 13:47:09;;;;;;;4.03;1.90;;;37.00;32.40;;;;;;4925598;29;20047;-77
2022/05/16 13:49:34;;;;;;;3.65;1.90;;;36.50;33.30;;;;;;4975733;28;20157;-76
2022/05/16 13:52:01;;;;;;;3.85;1.77;;;36.20;33.40;;;;;;5018878;28;20104;-77